Time;durP1;ratioP1;P1;durP2;ratioP2;P2;SDS_P1;SDS_P2;PMS_P1;PMS_P2;Temp;Humidity;BMP_temperature;BMP_pressure;BME280_temperature;BME280_humidity;BME280_pressure;Samples;Min_cycle;Max_cycle;Signal;HPM_P1;HPM_P2
2021/09/24 00:00:52;;;;;;;15.95;2.40;;;14.80;93.50;;;;;;6159423;23;20017;-83
2021/09/24 00:03:17;;;;;;;14.65;2.58;;;14.90;93.60;;;;;;6159318;23;20013;-83
2021/09/24 00:05:43;;;;;;;12.25;2.58;;;14.90;93.90;;;;;;6159161;23;20483;-84
2021/09/24 00:08:09;;;;;;;12.75;2.28;;;14.90;93.80;;;;;;6159816;23;20009;-84
2021/09/24 00:10:35;;;;;;;12.43;2.55;;;14.90;93.70;;;;;;6158342;23;20016;-84
2021/09/24 00:13:00;;;;;;;9.68;1.90;;;14.90;93.50;;;;;;6159561;23;20017;-84
2021/09/24 00:15:26;;;;;;;17.40;2.72;;;14.90;93.40;;;;;;6159371;23;20019;-83
2021/09/24 00:17:54;;;;;;;10.43;2.00;;;14.80;93.70;;;;;;6158506;23;20017;-83
2021/09/24 00:20:20;;;;;;;15.68;2.72;;;14.80;93.50;;;;;;6159321;23;20013;-83
2021/09/24 00:22:46;;;;;;;12.90;2.30;;;14.80;93.70;;;;;;6158246;23;20091;-83
2021/09/24 00:25:12;;;;;;;13.70;2.22;;;14.80;93.60;;;;;;6159146;23;20017;-83
2021/09/24 00:27:38;;;;;;;11.98;1.90;;;14.90;93.50;;;;;;6159308;23;20035;-83
2021/09/24 00:30:05;;;;;;;15.95;2.28;;;14.90;93.50;;;;;;6183398;23;20095;-83
2021/09/24 00:32:31;;;;;;;8.82;1.90;;;14.80;93.30;;;;;;6183109;23;20017;-83
2021/09/24 00:35:15;;;;;;;15.05;2.10;;;14.80;93.30;;;;;;6159462;23;20028;-83
2021/09/24 00:37:40;;;;;;;10.32;1.85;;;14.90;93.30;;;;;;6158362;23;20025;-83
2021/09/24 00:40:07;;;;;;;16.23;2.53;;;14.80;93.30;;;;;;6159418;23;20021;-83
2021/09/24 00:42:33;;;;;;;12.80;1.95;;;14.80;93.60;;;;;;6158694;23;20044;-83
2021/09/24 00:44:59;;;;;;;11.40;2.25;;;14.80;93.60;;;;;;6158062;23;20083;-82
2021/09/24 00:47:27;;;;;;;15.18;2.25;;;14.80;93.50;;;;;;6158996;23;20017;-83
2021/09/24 00:49:53;;;;;;;12.95;1.92;;;14.80;93.60;;;;;;6159385;23;20028;-83
2021/09/24 00:52:20;;;;;;;11.45;1.88;;;14.80;93.50;;;;;;6158572;23;20020;-83
2021/09/24 00:54:50;;;;;;;16.15;2.42;;;14.80;93.40;;;;;;6158419;23;20100;-83
2021/09/24 00:57:17;;;;;;;10.55;2.25;;;14.80;93.70;;;;;;6159193;23;20466;-83
2021/09/24 00:59:43;;;;;;;5.85;1.65;;;14.80;93.70;;;;;;6158356;23;20068;-82
2021/09/24 01:02:08;;;;;;;8.98;1.90;;;14.80;93.60;;;;;;6158752;23;20457;-83
2021/09/24 01:04:34;;;;;;;13.80;2.40;;;14.80;93.50;;;;;;6158660;23;20088;-83
2021/09/24 01:07:00;;;;;;;8.63;1.73;;;14.80;93.60;;;;;;6158496;23;20013;-83
2021/09/24 01:09:26;;;;;;;10.30;1.92;;;14.80;93.40;;;;;;6159855;23;20092;-83
2021/09/24 01:11:52;;;;;;;8.13;1.70;;;14.80;93.40;;;;;;6160795;23;20045;-83
2021/09/24 01:14:18;;;;;;;6.55;1.45;;;14.80;93.20;;;;;;6161148;23;20159;-83
2021/09/24 01:16:44;;;;;;;7.95;1.67;;;14.80;93.30;;;;;;6161197;23;20107;-83
2021/09/24 01:19:10;;;;;;;7.72;1.70;;;14.80;93.40;;;;;;6160559;23;20348;-83
2021/09/24 01:21:41;;;;;;;11.07;2.05;;;14.80;93.30;;;;;;6161206;23;20478;-82
2021/09/24 01:24:07;;;;;;;14.88;2.42;;;14.80;93.40;;;;;;6160507;23;20013;-83
2021/09/24 01:26:33;;;;;;;8.52;1.63;;;14.80;93.50;;;;;;6159578;23;20021;-83
2021/09/24 01:28:59;;;;;;;10.63;1.67;;;14.80;93.50;;;;;;6187440;23;20342;-83
2021/09/24 01:31:25;;;;;;;11.65;2.13;;;14.80;93.10;;;;;;6160902;23;20021;-83
2021/09/24 01:33:51;;;;;;;14.88;2.30;;;14.80;93.40;;;;;;6159814;23;20021;-83
2021/09/24 01:36:17;;;;;;;6.22;1.58;;;14.80;94.00;;;;;;6161034;23;20353;-82
2021/09/24 01:38:43;;;;;;;8.63;1.60;;;14.80;93.50;;;;;;6160870;23;20013;-83
2021/09/24 01:41:08;;;;;;;9.25;1.67;;;14.80;93.20;;;;;;6160163;23;20024;-83
2021/09/24 01:43:35;;;;;;;11.80;2.15;;;14.80;93.10;;;;;;6160433;23;20079;-83
2021/09/24 01:46:02;;;;;;;10.20;2.15;;;14.80;93.30;;;;;;6160747;23;20385;-83
2021/09/24 01:48:27;;;;;;;9.60;1.92;;;14.80;93.60;;;;;;6159413;23;20017;-83
2021/09/24 01:50:53;;;;;;;13.27;2.17;;;14.80;93.50;;;;;;6161269;23;20024;-83
2021/09/24 01:53:19;;;;;;;10.90;1.60;;;14.80;93.70;;;;;;6160752;23;20084;-83
2021/09/24 01:55:44;;;;;;;11.90;1.90;;;14.80;93.30;;;;;;6159900;23;20073;-83
2021/09/24 01:58:10;;;;;;;10.68;1.88;;;14.80;93.40;;;;;;6160900;23;20101;-82
2021/09/24 02:00:35;;;;;;;11.07;1.95;;;14.80;93.60;;;;;;6160458;23;20013;-83
2021/09/24 02:03:01;;;;;;;12.13;1.95;;;14.80;93.50;;;;;;6159511;23;20028;-83
2021/09/24 02:05:27;;;;;;;8.57;1.67;;;14.80;93.90;;;;;;6160526;23;20025;-83
2021/09/24 02:07:52;;;;;;;10.43;2.13;;;14.80;93.70;;;;;;6161351;23;20040;-83
2021/09/24 02:10:18;;;;;;;9.20;1.70;;;14.80;93.80;;;;;;6160091;23;20053;-83
2021/09/24 02:12:43;;;;;;;6.97;1.35;;;14.80;93.70;;;;;;6160330;23;20029;-83
2021/09/24 02:15:10;;;;;;;11.75;1.80;;;14.80;93.70;;;;;;6160202;23;20060;-82
2021/09/24 02:17:36;;;;;;;12.88;2.05;;;14.80;93.80;;;;;;6160399;23;20369;-83
2021/09/24 02:20:03;;;;;;;15.98;2.20;;;14.80;93.90;;;;;;6160618;23;20052;-83
2021/09/24 02:22:32;;;;;;;10.65;1.50;;;14.80;94.10;;;;;;6159252;23;20115;-82
2021/09/24 02:24:57;;;;;;;7.43;1.70;;;14.80;94.00;;;;;;6160695;23;20028;-83
2021/09/24 02:27:23;;;;;;;7.53;1.48;;;14.80;93.90;;;;;;6160880;23;20013;-83
2021/09/24 02:29:48;;;;;;;9.80;1.80;;;14.80;93.90;;;;;;6159817;23;20446;-83
2021/09/24 02:32:14;;;;;;;8.52;1.90;;;14.80;94.00;;;;;;6160483;23;20056;-83
2021/09/24 02:34:39;;;;;;;12.30;1.90;;;14.80;93.80;;;;;;6186969;23;20055;-84
2021/09/24 02:37:05;;;;;;;9.75;1.95;;;14.80;93.90;;;;;;6160005;23;20013;-83
2021/09/24 02:39:31;;;;;;;12.52;1.92;;;14.80;94.10;;;;;;6160212;23;20337;-83
2021/09/24 02:41:56;;;;;;;11.57;1.98;;;14.80;94.00;;;;;;6161383;23;20027;-83
2021/09/24 02:44:22;;;;;;;12.50;2.08;;;14.80;93.90;;;;;;6159686;23;20412;-83
2021/09/24 02:46:48;;;;;;;12.80;1.95;;;14.80;94.30;;;;;;6160051;23;20072;-83
2021/09/24 02:49:14;;;;;;;8.82;1.50;;;14.80;94.40;;;;;;6160285;23;20046;-83
2021/09/24 02:51:39;;;;;;;12.27;1.83;;;14.80;94.10;;;;;;6159523;23;20013;-83
2021/09/24 02:54:05;;;;;;;7.82;1.60;;;14.80;94.00;;;;;;6160729;23;20025;-82
2021/09/24 02:56:30;;;;;;;10.32;1.85;;;14.80;94.00;;;;;;6160694;23;20069;-83
2021/09/24 02:58:57;;;;;;;11.20;1.88;;;14.80;94.20;;;;;;6159603;23;20021;-82
2021/09/24 03:01:22;;;;;;;8.55;1.60;;;14.80;94.30;;;;;;6160603;23;20457;-83
2021/09/24 03:03:48;;;;;;;11.40;2.00;;;14.80;94.10;;;;;;6160287;23;20104;-83
2021/09/24 03:06:14;;;;;;;14.52;2.17;;;14.80;94.00;;;;;;6159258;23;20028;-84
2021/09/24 03:08:39;;;;;;;10.48;1.80;;;14.80;94.20;;;;;;6159760;23;20096;-83
2021/09/24 03:11:05;;;;;;;13.27;1.73;;;14.90;94.50;;;;;;6160490;23;20327;-82
2021/09/24 03:13:31;;;;;;;7.72;1.60;;;14.90;94.60;;;;;;6159558;23;20087;-82
2021/09/24 03:15:58;;;;;;;10.95;2.00;;;14.90;94.40;;;;;;6158909;23;20021;-83
2021/09/24 03:18:24;;;;;;;10.07;1.95;;;14.90;94.50;;;;;;6159895;23;20033;-83
2021/09/24 03:20:51;;;;;;;10.88;1.60;;;14.90;94.70;;;;;;6159383;23;20529;-83
2021/09/24 03:23:19;;;;;;;7.95;1.60;;;14.90;94.70;;;;;;6160413;23;20052;-82
2021/09/24 03:25:47;;;;;;;10.77;1.77;;;14.90;94.60;;;;;;6158758;23;20350;-83
2021/09/24 03:28:13;;;;;;;6.82;1.33;;;14.90;94.80;;;;;;6160054;23;20036;-83
2021/09/24 03:30:39;;;;;;;8.48;1.67;;;14.90;94.30;;;;;;6159930;23;20056;-82
2021/09/24 03:33:04;;;;;;;10.73;1.73;;;14.90;94.40;;;;;;6159054;23;20068;-82
2021/09/24 03:35:30;;;;;;;9.85;2.00;;;14.90;94.80;;;;;;6159559;23;20016;-83
2021/09/24 03:37:56;;;;;;;9.10;1.65;;;14.90;95.00;;;;;;6160546;23;20017;-83
2021/09/24 03:40:21;;;;;;;7.93;1.65;;;14.90;94.80;;;;;;6159051;23;20020;-82
2021/09/24 03:42:47;;;;;;;7.07;1.70;;;14.90;94.90;;;;;;6160071;23;20440;-83
2021/09/24 03:45:13;;;;;;;11.88;1.92;;;14.90;94.90;;;;;;6159946;23;20107;-83
2021/09/24 03:47:38;;;;;;;10.20;1.85;;;14.90;94.90;;;;;;6159174;23;20096;-84
2021/09/24 03:50:05;;;;;;;10.15;1.58;;;14.90;94.80;;;;;;6160417;23;20043;-83
2021/09/24 03:52:31;;;;;;;7.32;1.40;;;14.90;94.90;;;;;;6159767;23;20445;-82
2021/09/24 03:54:56;;;;;;;6.00;1.30;;;14.90;94.70;;;;;;6158881;23;20021;-82
2021/09/24 03:57:25;;;;;;;11.23;1.45;;;14.90;94.70;;;;;;6160146;23;20013;-82
2021/09/24 03:59:50;;;;;;;8.02;1.50;;;14.90;94.80;;;;;;6159843;23;20028;-82
2021/09/24 04:02:16;;;;;;;11.50;1.77;;;15.00;94.80;;;;;;6158824;23;20013;-82
2021/09/24 04:04:41;;;;;;;8.98;1.85;;;15.00;94.90;;;;;;6159226;23;20017;-83
2021/09/24 04:07:07;;;;;;;6.85;1.30;;;14.90;94.80;;;;;;6159488;23;20025;-82
2021/09/24 04:09:33;;;;;;;7.22;1.52;;;15.00;94.60;;;;;;6158464;23;20013;-82
2021/09/24 04:11:58;;;;;;;12.52;1.80;;;15.00;94.60;;;;;;6186022;23;20346;-82
2021/09/24 04:14:24;;;;;;;8.23;1.52;;;14.90;94.70;;;;;;6159813;23;20092;-82
2021/09/24 04:16:49;;;;;;;10.88;1.45;;;15.00;94.60;;;;;;6158596;23;20040;-82
2021/09/24 04:19:15;;;;;;;7.70;1.70;;;15.00;94.40;;;;;;6159471;23;20024;-83
2021/09/24 04:21:41;;;;;;;9.35;1.70;;;15.00;94.10;;;;;;6159068;23;20029;-83
2021/09/24 04:24:06;;;;;;;9.57;1.70;;;15.00;94.10;;;;;;6158672;23;20075;-83
2021/09/24 04:26:32;;;;;;;7.82;1.50;;;15.00;94.50;;;;;;6159707;23;20048;-83
2021/09/24 04:29:00;;;;;;;8.18;1.70;;;14.90;94.60;;;;;;6158889;23;20052;-83
2021/09/24 04:31:27;;;;;;;9.35;1.85;;;15.00;94.50;;;;;;6159481;23;20024;-83
2021/09/24 04:33:52;;;;;;;10.63;1.58;;;15.00;94.70;;;;;;6159538;23;20017;-83
2021/09/24 04:36:20;;;;;;;12.20;2.38;;;15.00;94.70;;;;;;6158695;23;20096;-83
2021/09/24 04:38:46;;;;;;;9.38;1.55;;;15.00;94.90;;;;;;6158502;23;20021;-83
2021/09/24 04:41:12;;;;;;;14.88;2.03;;;15.00;94.80;;;;;;6158966;23;20021;-83
2021/09/24 04:43:38;;;;;;;10.45;1.80;;;15.00;95.00;;;;;;6157543;23;20017;-84
2021/09/24 04:46:04;;;;;;;9.27;1.48;;;15.00;94.90;;;;;;6161407;23;20024;-83
2021/09/24 04:48:31;;;;;;;13.93;2.22;;;15.00;95.00;;;;;;6161086;23;20061;-83
2021/09/24 04:50:57;;;;;;;8.45;1.58;;;15.10;95.30;;;;;;6160379;23;20013;-83
2021/09/24 04:53:22;;;;;;;9.95;1.80;;;15.10;95.00;;;;;;6160837;23;20460;-83
2021/09/24 04:55:48;;;;;;;14.77;1.75;;;15.10;95.20;;;;;;6161196;23;20025;-83
2021/09/24 04:58:13;;;;;;;13.10;2.50;;;15.10;95.40;;;;;;6161213;23;20389;-83
2021/09/24 05:00:39;;;;;;;11.98;2.13;;;15.10;95.50;;;;;;6160450;23;20342;-83
2021/09/24 05:03:05;;;;;;;8.88;1.58;;;15.10;95.60;;;;;;6158274;23;20024;-83
2021/09/24 05:05:30;;;;;;;8.73;1.60;;;15.10;95.30;;;;;;6158785;23;20013;-83
2021/09/24 05:07:56;;;;;;;10.25;1.52;;;15.10;95.50;;;;;;6161288;23;20100;-83
2021/09/24 05:10:22;;;;;;;8.25;1.75;;;15.10;95.40;;;;;;6186108;23;20021;-83
2021/09/24 05:12:49;;;;;;;10.20;1.80;;;15.10;95.20;;;;;;6159849;23;20078;-83
2021/09/24 05:15:15;;;;;;;14.30;2.35;;;15.10;95.20;;;;;;6161358;23;20071;-83
2021/09/24 05:17:41;;;;;;;16.90;2.25;;;15.10;95.40;;;;;;6160996;23;20021;-83
2021/09/24 05:20:07;;;;;;;10.18;1.90;;;15.20;95.50;;;;;;6160476;23;20099;-83
2021/09/24 05:22:32;;;;;;;13.30;1.90;;;15.20;95.60;;;;;;6160447;23;20446;-83
2021/09/24 05:24:58;;;;;;;9.23;1.75;;;15.20;95.70;;;;;;6160937;23;20024;-83
2021/09/24 05:27:24;;;;;;;16.80;2.58;;;15.20;95.50;;;;;;6160193;23;20334;-83
2021/09/24 05:29:49;;;;;;;13.18;2.47;;;15.20;95.70;;;;;;6186138;23;20071;-83
2021/09/24 05:32:16;;;;;;;12.23;1.90;;;15.20;95.90;;;;;;6160066;23;20093;-83
2021/09/24 05:34:42;;;;;;;10.43;1.92;;;15.20;95.70;;;;;;6160351;23;20013;-83
2021/09/24 05:37:08;;;;;;;12.27;2.22;;;15.20;95.80;;;;;;6160736;23;20017;-83
2021/09/24 05:39:34;;;;;;;8.10;2.00;;;15.20;95.70;;;;;;6159402;23;20021;-83
2021/09/24 05:42:00;;;;;;;11.90;2.20;;;15.20;95.50;;;;;;6160938;23;20092;-83
2021/09/24 05:44:26;;;;;;;10.48;2.40;;;15.20;95.60;;;;;;6160194;23;20021;-83
2021/09/24 05:46:52;;;;;;;10.57;3.00;;;15.30;95.80;;;;;;6160036;23;20023;-83
2021/09/24 05:49:17;;;;;;;15.93;2.75;;;15.30;95.70;;;;;;6161400;23;20021;-83
2021/09/24 05:51:43;;;;;;;9.70;2.47;;;15.30;95.80;;;;;;6160653;23;20345;-83
2021/09/24 05:54:09;;;;;;;12.52;2.50;;;15.30;95.80;;;;;;6160248;23;20501;-83
2021/09/24 05:56:34;;;;;;;14.48;2.75;;;15.30;95.80;;;;;;6160869;23;20017;-84
2021/09/24 05:59:00;;;;;;;8.82;2.30;;;15.30;95.90;;;;;;6160936;23;20103;-84
2021/09/24 06:01:28;;;;;;;10.57;2.75;;;15.30;95.60;;;;;;6159812;23;20025;-85
2021/09/24 06:03:54;;;;;;;15.52;3.05;;;15.30;95.60;;;;;;6160782;23;20044;-84
2021/09/24 06:06:21;;;;;;;11.23;2.58;;;15.30;95.80;;;;;;6161006;23;20020;-84
2021/09/24 06:08:50;;;;;;;14.05;3.63;;;15.30;95.70;;;;;;6159288;23;20453;-84
2021/09/24 06:11:17;;;;;;;15.35;2.53;;;15.30;96.10;;;;;;6160571;23;20013;-84
2021/09/24 06:13:43;;;;;;;12.40;2.83;;;15.30;95.90;;;;;;6160645;23;20017;-84
2021/09/24 06:16:12;;;;;;;16.55;3.10;;;15.30;96.00;;;;;;6159102;23;20021;-84
2021/09/24 06:18:38;;;;;;;8.57;2.42;;;15.30;96.20;;;;;;6160127;23;20020;-84
2021/09/24 06:21:03;;;;;;;7.88;2.08;;;15.30;96.10;;;;;;6160568;23;20028;-84
2021/09/24 06:30:47;;;;;;;10.68;2.55;;;15.30;96.10;;;;;;6187328;23;20016;-88
2021/09/24 06:33:23;;;;;;;13.85;2.70;;;15.30;95.90;;;;;;6162807;23;20064;-88
2021/09/24 06:35:48;;;;;;;8.07;2.20;;;15.30;95.90;;;;;;6159568;23;20015;-84
2021/09/24 06:38:14;;;;;;;11.40;2.58;;;15.30;95.80;;;;;;6160713;23;20096;-83
2021/09/24 06:40:39;;;;;;;13.73;3.22;;;15.40;96.00;;;;;;6160236;23;20048;-82
2021/09/24 06:43:15;;;;;;;11.85;2.83;;;15.40;96.20;;;;;;6160090;23;20445;-82
2021/09/24 06:45:45;;;;;;;11.13;2.45;;;15.40;96.30;;;;;;6159800;23;20441;-81
2021/09/24 06:48:15;;;;;;;11.15;2.58;;;15.40;96.20;;;;;;6159814;23;20017;-82
2021/09/24 06:50:43;;;;;;;;;;;15.50;96.30;;;;;;6160137;23;20028;-83
2021/09/24 06:54:09;;;;;;;12.90;2.85;;;15.40;96.30;;;;;;6160547;23;19939;-83
2021/09/24 06:57:34;;;;;;;11.93;2.78;;;15.40;96.30;;;;;;6019228;23;20110;-83
2021/09/24 07:22:01;;;;;;;11.25;2.60;;;15.60;96.30;;;;;;6126169;23;20020;-83
2021/09/24 07:24:29;;;;;;;9.85;2.40;;;15.60;96.30;;;;;;6075812;23;20025;-84
2021/09/24 07:27:04;;;;;;;11.98;2.55;;;15.60;96.30;;;;;;6098340;23;20026;-83
2021/09/24 07:29:33;;;;;;;9.80;2.40;;;15.60;96.40;;;;;;6099421;23;20071;-83
2021/09/24 07:32:09;;;;;;;8.57;2.47;;;15.70;96.40;;;;;;6099565;23;20892;-83
2021/09/24 07:34:34;;;;;;;9.93;2.53;;;15.70;96.30;;;;;;6140599;23;20017;-87
2021/09/24 08:20:50;;;;;;;;;;;;;;;;;;;;;
2021/09/24 08:38:10;;;;;;;;;;;16.00;96.20;;;;;;6012001;23;20020;-83
2021/09/24 08:44:41;;;;;;;15.60;3.28;;;16.00;96.30;;;;;;6034286;23;20051;-84
2021/09/24 09:00:43;;;;;;;;;;;;;;;;;;;;;
2021/09/24 11:29:09;;;;;;;16.20;4.97;;;18.20;94.40;;;;;;6054938;23;20026;-83
2021/09/24 12:06:13;;;;;;;10.50;3.30;;;19.10;91.80;;;;;;6159150;23;20025;-84
2021/09/24 12:20:37;;;;;;;14.57;4.63;;;19.40;91.30;;;;;;6093141;23;20342;-82
2021/09/24 12:27:21;;;;;;;14.18;4.13;;;19.50;91.00;;;;;;6065068;23;20097;-81
2021/09/24 12:30:17;;;;;;;13.40;4.20;;;19.50;90.70;;;;;;6041424;23;20029;-83
2021/09/24 12:32:49;;;;;;;9.05;3.42;;;19.60;90.50;;;;;;6119913;23;20156;-82
2021/09/24 12:35:14;;;;;;;11.93;4.00;;;19.70;90.30;;;;;;6155214;23;20017;-83
2021/09/24 12:37:49;;;;;;;17.48;4.43;;;19.70;90.00;;;;;;6128938;23;20472;-84
2021/09/24 12:40:27;;;;;;;13.73;4.10;;;19.80;90.10;;;;;;6129770;23;20017;-84
2021/09/24 12:43:02;;;;;;;12.23;4.60;;;19.80;89.00;;;;;;6128686;23;20041;-84
2021/09/24 12:45:40;;;;;;;9.90;3.63;;;19.80;88.60;;;;;;6128924;23;20022;-83
2021/09/24 13:04:05;;;;;;;;;;;;;;;;;;;;;
2021/09/24 13:10:58;;;;;;;10.65;3.90;;;20.10;86.70;;;;;;6096523;23;20057;-83
2021/09/24 13:13:29;;;;;;;12.05;3.58;;;20.10;86.90;;;;;;6124312;23;20473;-84
2021/09/24 13:15:55;;;;;;;7.32;3.13;;;20.20;86.60;;;;;;6131736;23;20092;-84
2021/09/24 13:18:22;;;;;;;8.63;3.28;;;20.30;86.10;;;;;;6130131;23;20021;-84
2021/09/24 13:21:06;;;;;;;11.43;3.30;;;20.50;85.80;;;;;;6127645;23;20018;-83
2021/09/24 13:23:47;;;;;;;9.07;3.65;;;20.50;85.20;;;;;;6129769;23;20017;-82
2021/09/24 13:26:14;;;;;;;10.68;3.13;;;20.60;84.80;;;;;;6130874;23;20021;-83
2021/09/24 13:57:44;;;;;;;;;;;20.50;84.00;;;;;;6037627;23;20118;-83
2021/09/24 14:23:12;;;;;;;7.68;3.05;;;20.70;82.00;;;;;;6185481;23;20020;-81
2021/09/24 14:25:49;;;;;;;8.82;2.70;;;20.70;82.30;;;;;;6013675;23;20033;-82
2021/09/24 14:28:40;;;;;;;6.97;2.70;;;20.80;81.80;;;;;;6012741;23;20015;-82
2021/09/24 14:31:19;;;;;;;7.32;2.75;;;20.80;82.00;;;;;;6120162;23;20023;-83
2021/09/24 14:33:54;;;;;;;8.95;3.20;;;20.80;81.90;;;;;;6158429;23;20037;-83
2021/09/24 14:36:19;;;;;;;8.93;2.75;;;20.80;82.30;;;;;;6159999;23;20028;-82
2021/09/24 14:46:30;;;;;;;;;;;;;;;;;;;;;
2021/09/24 14:57:04;;;;;;;7.32;1.98;;;20.80;80.50;;;;;;5956023;24;20028;-85
2021/09/24 15:13:57;;;;;;;10.20;2.33;;;20.60;81.30;;;;;;6216669;23;20035;-85
2021/09/24 15:16:56;;;;;;;7.45;2.20;;;20.60;80.70;;;;;;6188156;23;20453;-84
2021/09/24 15:19:43;;;;;;;8.55;2.13;;;20.60;80.70;;;;;;6212000;23;20104;-86
2021/09/24 15:23:04;;;;;;;6.20;1.70;;;20.60;81.00;;;;;;6189719;23;20017;-85
2021/09/24 15:25:37;;;;;;;5.80;1.67;;;20.60;81.20;;;;;;6161245;23;20021;-86
2021/09/24 15:28:03;;;;;;;5.72;1.52;;;20.50;81.50;;;;;;6189504;23;20023;-85
2021/09/24 15:30:49;;;;;;;6.40;1.73;;;20.50;82.10;;;;;;6188159;23;20017;-86
2021/09/24 15:33:31;;;;;;;6.72;1.70;;;20.50;82.60;;;;;;6188993;23;20008;-84
2021/09/24 15:36:20;;;;;;;7.50;1.67;;;20.50;82.20;;;;;;6189409;23;20016;-86
2021/09/24 15:38:52;;;;;;;7.10;1.70;;;20.50;82.50;;;;;;6187762;23;20074;-83
2021/09/24 15:41:21;;;;;;;6.32;1.60;;;20.50;83.20;;;;;;6215590;23;20365;-83
2021/09/24 15:43:46;;;;;;;7.80;1.63;;;20.50;83.40;;;;;;6188801;23;20088;-85
2021/09/24 15:46:16;;;;;;;6.07;1.52;;;20.40;82.90;;;;;;6189124;23;20055;-85
2021/09/24 15:48:57;;;;;;;4.80;1.60;;;20.40;82.90;;;;;;6190879;23;20013;-85
2021/09/24 15:51:23;;;;;;;4.88;1.38;;;20.40;83.60;;;;;;6189143;23;20020;-85
2021/09/24 15:53:58;;;;;;;8.70;1.52;;;20.40;83.20;;;;;;6190057;23;20013;-86
2021/09/24 15:59:56;;;;;;;7.00;1.70;;;20.30;83.30;;;;;;6215309;23;20019;-86
2021/09/24 16:17:27;;;;;;;4.78;1.30;;;20.10;83.70;;;;;;6215732;23;20148;-86
2021/09/24 16:25:09;;;;;;;;;;;;;;;;;;;;;
2021/09/24 16:34:30;;;;;;;8.68;1.50;;;20.00;84.90;;;;;;6184771;23;20353;-84
2021/09/24 17:36:26;;;;;;;6.97;1.75;;;19.10;86.20;;;;;;5998231;23;20094;-84
2021/09/24 17:41:44;;;;;;;8.85;1.98;;;19.10;86.60;;;;;;6185024;23;20020;-83
2021/09/24 17:44:38;;;;;;;5.43;1.90;;;19.20;87.50;;;;;;6158397;23;20100;-85
2021/09/24 17:47:12;;;;;;;6.10;1.50;;;19.20;87.30;;;;;;6126746;23;20021;-83
2021/09/24 17:53:22;;;;;;;11.02;1.67;;;19.10;87.00;;;;;;6013212;23;20018;-84
2021/09/24 17:56:08;;;;;;;7.55;1.92;;;19.20;87.60;;;;;;6157567;23;20096;-85
2021/09/24 17:58:54;;;;;;;7.22;1.70;;;19.10;86.60;;;;;;6159430;23;20378;-84
2021/09/24 18:01:32;;;;;;;8.25;1.50;;;19.10;86.40;;;;;;6160960;23;20013;-85
2021/09/24 18:07:27;;;;;;;7.75;1.48;;;19.20;87.80;;;;;;6118737;23;20021;-84
2021/09/24 18:09:59;;;;;;;6.55;1.25;;;19.20;88.00;;;;;;6159933;23;20378;-85
2021/09/24 18:12:25;;;;;;;6.45;1.40;;;19.20;86.60;;;;;;6157509;23;20451;-85
2021/09/24 18:18:36;;;;;;;6.93;1.90;;;19.10;86.30;;;;;;6121098;23;20025;-84
2021/09/24 18:21:05;;;;;;;8.00;1.50;;;19.10;87.10;;;;;;6160084;23;20016;-86
2021/09/24 18:23:37;;;;;;;6.72;1.73;;;19.10;86.60;;;;;;6160865;23;20466;-85
2021/09/24 18:26:39;;;;;;;7.25;1.55;;;19.10;87.60;;;;;;6159716;23;20410;-86
2021/09/24 18:33:10;;;;;;;5.90;1.25;;;19.00;86.50;;;;;;6158977;23;20352;-86
2021/09/24 18:39:57;;;;;;;7.57;1.30;;;19.00;86.40;;;;;;6039281;23;20139;-86
2021/09/24 18:43:18;;;;;;;11.25;1.45;;;18.90;86.70;;;;;;6038891;23;20353;-84
2021/09/24 19:05:09;;;;;;;4.95;1.45;;;18.80;88.80;;;;;;6156215;23;20025;-85
2021/09/24 20:04:28;;;;;;;11.15;2.00;;;18.50;90.40;;;;;;6095986;23;20010;-87
2021/09/24 20:07:03;;;;;;;10.40;1.90;;;18.40;90.50;;;;;;6072329;23;20443;-88
2021/09/24 20:09:42;;;;;;;10.98;1.73;;;18.40;90.70;;;;;;6073297;23;20029;-87
2021/09/24 20:12:30;;;;;;;6.43;1.63;;;18.50;90.80;;;;;;6070936;23;20403;-86
2021/09/24 20:16:11;;;;;;;7.53;1.90;;;18.40;90.70;;;;;;6089549;23;20101;-86
2021/09/24 20:18:59;;;;;;;9.32;2.22;;;18.40;90.80;;;;;;5928296;24;20771;-86
2021/09/24 20:21:28;;;;;;;10.27;2.30;;;18.40;91.00;;;;;;5908668;24;20031;-87
2021/09/24 20:24:08;;;;;;;9.23;1.92;;;18.40;91.10;;;;;;5930534;24;20031;-88
2021/09/24 20:27:27;;;;;;;8.15;2.03;;;18.40;91.10;;;;;;5929690;24;20025;-88
2021/09/24 20:40:24;;;;;;;7.05;1.73;;;18.30;91.30;;;;;;5937317;23;20050;-87
2021/09/24 20:43:08;;;;;;;8.57;2.30;;;18.30;91.20;;;;;;5902598;24;20053;-87
2021/09/24 20:49:43;;;;;;;7.88;2.00;;;18.30;91.50;;;;;;5926615;24;20024;-88
2021/09/24 20:52:21;;;;;;;9.18;2.00;;;18.30;91.40;;;;;;5963181;23;20030;-86
2021/09/24 21:06:23;;;;;;;6.10;1.90;;;18.30;91.60;;;;;;5981928;23;20032;-87
2021/09/24 21:28:26;;;;;;;12.05;2.35;;;18.20;91.80;;;;;;6159023;23;20021;-88
2021/09/24 21:31:10;;;;;;;11.88;2.65;;;18.20;91.90;;;;;;6156385;23;20096;-87
2021/09/24 22:33:45;;;;;;;13.77;2.53;;;18.00;92.80;;;;;;6208095;23;20030;-86
2021/09/24 23:33:02;;;;;;;11.55;2.88;;;17.90;93.30;;;;;;6095576;23;20054;-87
2021/09/24 23:36:24;;;;;;;10.98;2.53;;;17.90;93.50;;;;;;6068982;23;20023;-87
2021/09/24 23:39:21;;;;;;;10.18;2.45;;;17.90;93.50;;;;;;6071586;23;20118;-86
2021/09/24 23:41:47;;;;;;;18.10;2.90;;;17.90;93.60;;;;;;6071017;23;20025;-86
2021/09/24 23:49:17;;;;;;;11.77;3.05;;;17.90;93.70;;;;;;6067025;23;20029;-86
2021/09/24 23:52:22;;;;;;;13.65;3.53;;;17.80;93.60;;;;;;5978103;23;20058;-86
